createdAt,value
2018-09-28T00:00:28.133Z,99.99
2018-09-28T00:01:28.165Z,99.99
2018-09-28T00:02:28.196Z,99.99
2018-09-28T00:03:28.226Z,99.99
2018-09-28T00:04:28.259Z,99.99
2018-09-28T00:05:28.288Z,99.99
2018-09-28T00:06:28.323Z,99.99
2018-09-28T00:07:28.353Z,99.99
2018-09-28T00:08:28.384Z,99.99
2018-09-28T00:09:28.411Z,99.99
2018-09-28T00:10:28.443Z,99.99
2018-09-28T00:11:28.474Z,99.99
2018-09-28T00:12:28.504Z,99.99
2018-09-28T00:13:28.535Z,99.99
2018-09-28T00:14:28.565Z,99.99
2018-09-28T00:15:28.597Z,99.99
2018-09-28T00:16:28.629Z,99.99
2018-09-28T00:17:28.658Z,99.99
2018-09-28T00:18:28.694Z,99.99
2018-09-28T00:19:28.720Z,99.99
2018-09-28T00:20:28.751Z,99.99
2018-09-28T00:21:28.784Z,99.99
2018-09-28T00:22:28.813Z,99.99
2018-09-28T00:23:28.847Z,99.99
2018-09-28T00:24:28.878Z,99.99
2018-09-28T00:25:28.911Z,99.99
2018-09-28T00:26:28.940Z,99.99
2018-09-28T00:27:28.967Z,99.99
2018-09-28T00:28:28.997Z,99.99
2018-09-28T00:29:29.029Z,99.99
2018-09-28T00:30:29.066Z,99.99
2018-09-28T00:31:29.090Z,99.99
2018-09-28T00:32:29.121Z,99.99
2018-09-28T00:33:29.152Z,99.99
2018-09-28T00:34:29.182Z,99.99
2018-09-28T00:35:29.213Z,99.99
2018-09-28T00:36:29.249Z,99.99
2018-09-28T00:37:29.274Z,99.99
2018-09-28T00:38:29.306Z,99.99
2018-09-28T00:39:29.335Z,99.99
2018-09-28T00:40:29.371Z,99.99
2018-09-28T00:41:29.398Z,99.99
2018-09-28T00:42:29.431Z,99.99
2018-09-28T00:43:29.459Z,99.99
2018-09-28T00:44:29.490Z,99.99
2018-09-28T00:45:29.521Z,99.99
2018-09-28T00:46:29.552Z,99.99
2018-09-28T00:47:29.584Z,99.99
2018-09-28T00:48:29.616Z,99.99
2018-09-28T00:49:29.644Z,99.99
2018-09-28T00:50:29.675Z,99.99
2018-09-28T00:51:29.705Z,99.99
2018-09-28T00:52:29.737Z,99.99
2018-09-28T00:53:29.766Z,99.99
2018-09-28T00:54:29.797Z,99.99
2018-09-28T00:55:29.827Z,99.99
2018-09-28T00:56:29.862Z,99.99
2018-09-28T00:57:29.890Z,99.99
2018-09-28T00:58:29.920Z,99.99
2018-09-28T00:59:29.950Z,99.99
2018-09-28T01:00:29.981Z,99.99
2018-09-28T01:01:30.017Z,99.99
2018-09-28T01:02:30.043Z,99.99
2018-09-28T01:03:30.075Z,99.99
2018-09-28T01:04:30.104Z,99.99
2018-09-28T01:05:30.134Z,99.99
2018-09-28T01:06:30.167Z,99.99
2018-09-28T01:07:30.196Z,99.99
2018-09-28T01:08:30.225Z,99.99
2018-09-28T01:09:30.259Z,99.99
2018-09-28T01:10:30.288Z,99.99
2018-09-28T01:11:30.318Z,99.99
2018-09-28T01:12:30.349Z,99.99
2018-09-28T01:13:30.380Z,99.99
2018-09-28T01:14:30.410Z,99.99
2018-09-28T01:15:30.441Z,99.99
2018-09-28T01:16:30.472Z,99.99
2018-09-28T01:17:30.503Z,99.99
2018-09-28T01:18:30.533Z,99.99
2018-09-28T01:19:30.564Z,99.99
2018-09-28T01:20:30.599Z,99.99
2018-09-28T01:21:30.625Z,99.99
2018-09-28T01:22:30.656Z,99.99
2018-09-28T01:23:30.687Z,99.99
2018-09-28T01:24:30.716Z,99.99
2018-09-28T01:25:30.748Z,99.99
2018-09-28T01:26:30.778Z,99.99
2018-09-28T01:27:30.808Z,99.99
2018-09-28T01:28:30.837Z,99.99
2018-09-28T01:29:30.870Z,99.99
2018-09-28T01:30:30.900Z,99.99
2018-09-28T01:31:30.930Z,99.99
2018-09-28T01:32:30.961Z,99.99
2018-09-28T01:33:30.991Z,99.99
2018-09-28T01:34:31.023Z,99.99
2018-09-28T01:35:31.052Z,99.99
2018-09-28T01:36:31.083Z,99.99
2018-09-28T01:37:31.113Z,99.99
2018-09-28T01:38:31.143Z,99.99
2018-09-28T01:39:31.174Z,99.99
2018-09-28T01:40:31.204Z,99.99
2018-09-28T01:41:31.235Z,99.99
2018-09-28T01:42:31.265Z,99.99
2018-09-28T01:43:31.295Z,99.99
2018-09-28T01:44:31.327Z,99.99
2018-09-28T01:45:31.357Z,99.99
2018-09-28T01:46:31.387Z,99.99
2018-09-28T01:47:31.417Z,99.99
2018-09-28T01:48:31.447Z,99.99
2018-09-28T01:49:31.480Z,99.99
2018-09-28T01:50:31.509Z,99.99
2018-09-28T01:51:31.538Z,99.99
2018-09-28T01:52:31.569Z,99.99
2018-09-28T01:53:31.599Z,99.99
2018-09-28T01:54:31.634Z,99.99
2018-09-28T01:55:31.660Z,99.99
2018-09-28T01:56:31.693Z,99.99
2018-09-28T01:57:31.721Z,99.99
2018-09-28T01:58:31.752Z,99.99
2018-09-28T01:59:31.781Z,99.99
2018-09-28T02:00:31.812Z,99.99
2018-09-28T02:01:31.842Z,99.99
2018-09-28T02:02:34.378Z,99.99
2018-09-28T02:03:31.903Z,99.99
2018-09-28T02:04:31.933Z,99.99
2018-09-28T02:05:31.964Z,99.99
2018-09-28T02:06:31.994Z,99.99
2018-09-28T02:07:32.025Z,99.99
2018-09-28T02:08:32.053Z,99.99
2018-09-28T02:09:32.086Z,99.99
2018-09-28T02:10:32.167Z,99.99
2018-09-28T02:11:32.145Z,99.99
2018-09-28T02:12:32.224Z,99.99
2018-09-28T02:13:32.207Z,99.99
2018-09-28T02:14:32.236Z,99.99
2018-09-28T02:15:32.267Z,99.99
2018-09-28T02:16:32.297Z,99.99
2018-09-28T02:17:32.328Z,99.99
2018-09-28T02:18:32.358Z,99.99
2018-09-28T02:19:32.387Z,99.99
2018-09-28T02:20:32.438Z,99.99
2018-09-28T02:21:32.450Z,99.99
2018-09-28T02:22:32.480Z,99.99
2018-09-28T02:23:32.509Z,99.99
2018-09-28T02:24:32.539Z,99.99
2018-09-28T02:25:32.570Z,99.99
2018-09-28T02:26:32.600Z,99.99
2018-09-28T02:27:32.630Z,99.99
2018-09-28T02:28:32.660Z,99.99
2018-09-28T02:29:32.691Z,99.99
2018-09-28T02:30:32.722Z,99.99
2018-09-28T02:31:32.752Z,99.99
2018-09-28T02:32:32.782Z,99.99
2018-09-28T02:33:32.812Z,99.99
2018-09-28T02:34:32.842Z,99.99
2018-09-28T02:35:32.871Z,99.99
2018-09-28T02:36:32.902Z,99.99
2018-09-28T02:37:32.950Z,99.99
2018-09-28T02:38:32.964Z,99.99
2018-09-28T02:39:32.993Z,99.99
2018-09-28T02:40:33.023Z,99.99
2018-09-28T02:41:33.055Z,99.99
2018-09-28T02:42:33.086Z,99.99
2018-09-28T02:43:33.114Z,99.99
2018-09-28T02:44:33.146Z,99.99
2018-09-28T02:45:33.178Z,99.99
2018-09-28T02:46:33.207Z,99.99
2018-09-28T02:47:33.236Z,99.99
2018-09-28T02:48:33.266Z,99.99
2018-09-28T02:49:33.301Z,99.99
2018-09-28T02:50:33.327Z,99.99
2018-09-28T02:51:33.356Z,99.99
2018-09-28T02:52:33.387Z,99.99
2018-09-28T02:53:33.418Z,99.99
2018-09-28T02:54:33.447Z,99.99
2018-09-28T02:55:33.480Z,99.99
2018-09-28T02:56:33.507Z,99.99
2018-09-28T02:57:33.539Z,99.99
2018-09-28T02:58:33.568Z,99.99
2018-09-28T02:59:33.598Z,99.99
2018-09-28T03:00:33.633Z,99.99
2018-09-28T03:01:33.660Z,99.99
2018-09-28T03:02:33.690Z,99.99
2018-09-28T03:03:33.720Z,99.99
2018-09-28T03:04:33.750Z,99.99
2018-09-28T03:05:33.781Z,99.99
2018-09-28T03:06:33.811Z,99.99
2018-09-28T03:07:36.250Z,99.99
2018-09-28T03:08:33.876Z,99.99
2018-09-28T03:09:33.903Z,99.99
2018-09-28T03:10:33.932Z,99.99
2018-09-28T03:11:33.960Z,99.99
2018-09-28T03:12:33.996Z,99.99
2018-09-28T03:13:34.022Z,99.99
2018-09-28T03:14:34.053Z,99.99
2018-09-28T03:15:34.084Z,99.99
2018-09-28T03:16:34.112Z,99.99
2018-09-28T03:17:34.143Z,99.99
2018-09-28T03:18:34.175Z,99.99
2018-09-28T03:19:34.211Z,99.99
2018-09-28T03:20:34.234Z,99.99
2018-09-28T03:21:34.263Z,99.99
2018-09-28T03:22:34.295Z,99.99
2018-09-28T03:23:34.326Z,99.99
2018-09-28T03:24:34.402Z,99.99
2018-09-28T03:25:34.386Z,99.99
2018-09-28T03:26:34.416Z,99.99
2018-09-28T03:27:34.445Z,99.99
2018-09-28T03:28:34.474Z,99.99
2018-09-28T03:29:34.509Z,99.99
2018-09-28T03:30:34.540Z,99.99
2018-09-28T03:31:34.567Z,99.99
2018-09-28T03:32:34.596Z,99.99
2018-09-28T03:33:34.632Z,99.99
2018-09-28T03:34:34.656Z,99.99
2018-09-28T03:35:34.688Z,99.99
2018-09-28T03:36:34.716Z,99.99
2018-09-28T03:37:34.747Z,99.99
2018-09-28T03:38:34.776Z,99.99
2018-09-28T03:39:34.806Z,99.99
2018-09-28T03:40:34.862Z,99.99
2018-09-28T03:41:34.868Z,99.99
2018-09-28T03:42:34.897Z,99.99
2018-09-28T03:43:34.926Z,99.99
2018-09-28T03:44:34.957Z,99.99
2018-09-28T03:45:34.987Z,99.99
2018-09-28T03:46:35.020Z,99.99
2018-09-28T03:47:35.049Z,99.99
2018-09-28T03:48:35.076Z,99.99
2018-09-28T03:49:35.111Z,99.99
2018-09-28T03:50:35.137Z,99.99
2018-09-28T03:51:35.167Z,99.99
2018-09-28T03:52:35.201Z,99.99
2018-09-28T03:53:35.228Z,99.99
2018-09-28T03:54:35.259Z,99.99
2018-09-28T03:55:35.289Z,99.99
2018-09-28T03:56:35.327Z,99.99
2018-09-28T03:57:35.348Z,99.99
2018-09-28T03:58:35.379Z,99.99
2018-09-28T03:59:35.413Z,99.99
2018-09-28T04:00:35.437Z,99.99
2018-09-28T04:01:35.467Z,99.99
2018-09-28T04:02:35.498Z,99.99
2018-09-28T04:03:35.528Z,99.99
2018-09-28T04:04:35.559Z,99.99
2018-09-28T04:05:35.591Z,99.99
2018-09-28T04:06:35.619Z,99.99
2018-09-28T04:07:35.648Z,99.99
2018-09-28T04:08:35.678Z,99.99
2018-09-28T04:09:35.709Z,99.99
2018-09-28T04:10:35.739Z,99.99
2018-09-28T04:11:35.770Z,99.99
2018-09-28T04:12:35.798Z,99.99
2018-09-28T04:13:35.829Z,99.99
2018-09-28T04:14:35.860Z,99.99
2018-09-28T04:15:35.889Z,99.99
2018-09-28T04:16:35.919Z,99.99
2018-09-28T04:17:35.950Z,99.99
2018-09-28T04:18:35.980Z,99.99
2018-09-28T04:19:36.008Z,99.99
2018-09-28T04:20:36.039Z,99.99
2018-09-28T04:21:36.071Z,99.99
2018-09-28T04:22:36.099Z,99.99
2018-09-28T04:23:36.128Z,99.99
2018-09-28T04:24:36.158Z,99.99
2018-09-28T04:25:36.189Z,99.99
2018-09-28T04:26:36.219Z,99.99
2018-09-28T04:27:36.248Z,99.99
2018-09-28T04:28:36.278Z,99.99
2018-09-28T04:29:36.310Z,99.99
2018-09-28T04:30:36.339Z,99.99
2018-09-28T04:31:36.368Z,99.99
2018-09-28T04:32:36.402Z,99.99
2018-09-28T04:33:36.429Z,99.99
2018-09-28T04:34:36.458Z,99.99
2018-09-28T04:35:36.488Z,99.99
2018-09-28T04:36:36.518Z,99.99
2018-09-28T04:37:36.548Z,99.99
2018-09-28T04:38:36.580Z,99.99
2018-09-28T04:39:36.607Z,99.99
2018-09-28T04:40:36.638Z,99.99
2018-09-28T04:41:36.669Z,99.99
2018-09-28T04:42:36.699Z,99.99
2018-09-28T04:43:36.727Z,99.99
2018-09-28T04:44:36.761Z,99.99
2018-09-28T04:45:36.805Z,99.99
2018-09-28T04:46:36.818Z,99.99
2018-09-28T04:47:36.847Z,99.99
2018-09-28T04:48:36.878Z,99.99
2018-09-28T04:49:36.908Z,99.99
2018-09-28T04:50:36.939Z,99.99
2018-09-28T04:51:36.968Z,99.99
2018-09-28T04:52:36.998Z,99.99
2018-09-28T04:53:37.027Z,99.99
2018-09-28T04:54:37.064Z,99.99
2018-09-28T04:55:37.090Z,99.99
2018-09-28T04:56:37.118Z,99.99
2018-09-28T04:57:37.149Z,99.99
2018-09-28T04:58:37.179Z,99.99
2018-09-28T04:59:37.207Z,99.99
2018-09-28T05:00:37.236Z,99.99
2018-09-28T05:01:37.271Z,99.99
2018-09-28T05:02:37.298Z,99.99
2018-09-28T05:03:37.327Z,99.99
2018-09-28T05:04:37.357Z,99.99
2018-09-28T05:05:37.387Z,99.99
2018-09-28T05:06:37.417Z,99.99
2018-09-28T05:07:37.448Z,99.99
2018-09-28T05:08:37.478Z,99.99
2018-09-28T05:09:37.508Z,99.99
2018-09-28T05:10:37.538Z,99.99
2018-09-28T05:11:37.566Z,99.99
2018-09-28T05:12:37.596Z,99.99
2018-09-28T05:13:37.627Z,99.99
2018-09-28T05:14:37.657Z,99.99
2018-09-28T05:15:37.687Z,99.99
2018-09-28T05:16:37.717Z,99.99
2018-09-28T05:17:37.747Z,99.99
2018-09-28T05:18:37.777Z,99.99
2018-09-28T05:19:37.851Z,99.99
2018-09-28T05:20:37.836Z,99.99
2018-09-28T05:21:37.868Z,99.99
2018-09-28T05:22:37.897Z,99.99
2018-09-28T05:23:37.925Z,99.99
2018-09-28T05:24:37.956Z,99.99
2018-09-28T05:25:37.988Z,99.99
2018-09-28T05:26:38.017Z,99.99
2018-09-28T05:27:38.046Z,99.99
2018-09-28T05:28:38.076Z,99.99
2018-09-28T05:29:38.110Z,99.99
2018-09-28T05:30:44.971Z,99.99
2018-09-28T05:31:38.284Z,99.99
2018-09-28T05:32:38.370Z,99.99
2018-09-28T05:33:38.225Z,99.99
2018-09-28T05:34:38.256Z,99.99
2018-09-28T05:35:38.285Z,99.99
2018-09-28T05:36:38.317Z,99.99
2018-09-28T05:37:38.346Z,99.99
2018-09-28T05:38:38.375Z,99.99
2018-09-28T05:39:38.406Z,99.99
2018-09-28T05:40:38.435Z,99.99
2018-09-28T05:41:38.465Z,99.99
2018-09-28T05:42:38.496Z,99.99
2018-09-28T05:43:38.548Z,99.99
2018-09-28T05:44:38.555Z,99.99
2018-09-28T05:45:38.585Z,99.99
2018-09-28T05:46:38.621Z,99.99
2018-09-28T05:47:38.644Z,99.99
2018-09-28T05:48:38.675Z,99.99
2018-09-28T05:49:38.705Z,99.99
2018-09-28T05:50:38.737Z,99.99
2018-09-28T05:51:38.766Z,99.99
2018-09-28T05:52:38.802Z,99.99
2018-09-28T05:53:38.824Z,99.99
2018-09-28T05:54:38.883Z,99.99
2018-09-28T05:55:38.886Z,99.99
2018-09-28T05:56:38.914Z,99.99
2018-09-28T05:57:38.945Z,99.99
2018-09-28T05:58:39.032Z,99.99
2018-09-28T05:59:39.005Z,99.99
2018-09-28T06:00:39.036Z,99.99
2018-09-28T06:01:39.066Z,99.99
2018-09-28T06:02:39.097Z,99.99
2018-09-28T06:03:39.126Z,99.99
2018-09-28T06:04:39.156Z,99.99
2018-09-28T06:05:39.285Z,99.99
2018-09-28T06:06:39.217Z,99.99
2018-09-28T06:07:39.249Z,99.99
2018-09-28T06:08:39.277Z,99.99
2018-09-28T06:09:39.308Z,99.99
2018-09-28T06:10:39.339Z,99.99
2018-09-28T06:11:39.368Z,99.99
2018-09-28T06:12:39.398Z,99.99
2018-09-28T06:13:39.429Z,99.99
2018-09-28T06:14:39.460Z,99.99
2018-09-28T06:15:39.490Z,99.99
2018-09-28T06:16:39.521Z,99.99
2018-09-28T06:17:39.552Z,99.99
2018-09-28T06:18:39.669Z,99.99
2018-09-28T06:19:39.616Z,99.99
2018-09-28T06:20:39.643Z,99.99
2018-09-28T06:21:39.675Z,99.99
2018-09-28T06:22:39.704Z,99.99
2018-09-28T06:23:39.734Z,99.99
2018-09-28T06:24:39.764Z,99.99
2018-09-28T06:25:39.796Z,99.99
2018-09-28T06:26:39.828Z,99.99
2018-09-28T06:27:39.858Z,99.99
2018-09-28T06:28:39.888Z,99.99
2018-09-28T06:29:39.964Z,99.99
2018-09-28T06:30:39.951Z,99.99
2018-09-28T06:31:39.979Z,99.99
2018-09-28T06:32:40.011Z,99.99
2018-09-28T06:33:40.041Z,99.99
2018-09-28T06:34:40.072Z,99.99
2018-09-28T06:35:40.159Z,99.99
2018-09-28T06:36:40.134Z,99.99
2018-09-28T06:37:40.164Z,99.99
2018-09-28T06:38:40.199Z,99.99
2018-09-28T06:39:40.229Z,99.99
2018-09-28T06:40:40.257Z,99.99
2018-09-28T06:41:40.350Z,99.99
2018-09-28T06:42:40.319Z,99.99
2018-09-28T06:43:40.349Z,99.99
2018-09-28T06:44:40.445Z,99.99
2018-09-28T06:45:40.411Z,99.99
2018-09-28T06:46:40.443Z,99.99
2018-09-28T06:47:40.476Z,99.99
2018-09-28T06:48:40.509Z,99.99
2018-09-28T06:49:40.536Z,99.99
2018-09-28T06:50:40.569Z,99.99
2018-09-28T06:51:40.598Z,99.99
2018-09-28T06:52:40.631Z,99.99
2018-09-28T06:53:40.678Z,99.99
2018-09-28T06:54:40.692Z,99.99
2018-09-28T06:55:40.722Z,99.99
2018-09-28T06:56:40.756Z,99.99
2018-09-28T06:57:40.786Z,99.99
2018-09-28T06:58:40.817Z,99.99
2018-09-28T06:59:40.900Z,99.99
2018-09-28T07:00:40.881Z,99.99
2018-09-28T07:01:40.914Z,99.99
2018-09-28T07:02:40.942Z,99.99
2018-09-28T07:03:40.973Z,99.99
2018-09-28T07:04:41.005Z,99.99
2018-09-28T07:05:42.997Z,99.99
2018-09-28T07:06:41.068Z,99.99
2018-09-28T07:07:41.102Z,99.99
2018-09-28T07:08:41.131Z,99.99
2018-09-28T07:09:41.164Z,99.99
2018-09-28T07:10:41.194Z,99.99
2018-09-28T07:11:41.231Z,99.99
2018-09-28T07:12:41.259Z,99.99
2018-09-28T07:13:41.291Z,99.99
2018-09-28T07:14:41.324Z,99.99
2018-09-28T07:15:41.354Z,99.99
2018-09-28T07:16:41.433Z,99.99
2018-09-28T07:17:41.446Z,99.99
2018-09-28T07:18:41.453Z,99.99
2018-09-28T07:19:41.483Z,99.99
2018-09-28T07:20:41.514Z,99.99
2018-09-28T07:21:41.547Z,99.99
2018-09-28T07:22:41.581Z,99.99
2018-09-28T07:23:41.622Z,99.99
2018-09-28T07:24:41.704Z,99.99
2018-09-28T07:25:41.680Z,99.99
2018-09-28T07:26:43.363Z,99.99
2018-09-28T07:27:41.740Z,99.99
2018-09-28T07:28:41.774Z,99.99
2018-09-28T07:29:41.836Z,99.99
2018-09-28T07:30:41.841Z,99.99
2018-09-28T07:31:41.872Z,99.99
2018-09-28T07:32:41.906Z,99.99
2018-09-28T07:33:41.942Z,99.99
2018-09-28T07:34:41.972Z,99.99
2018-09-28T07:35:42.070Z,99.99
2018-09-28T07:36:42.271Z,99.99
2018-09-28T07:37:42.072Z,99.99
2018-09-28T07:38:42.106Z,99.99
2018-09-28T07:39:42.142Z,99.99
2018-09-28T07:40:42.173Z,99.99
2018-09-28T07:41:42.242Z,99.99
2018-09-28T07:42:42.240Z,99.99
2018-09-28T07:43:42.273Z,99.99
2018-09-28T07:44:42.307Z,99.99
2018-09-28T07:45:42.339Z,99.58
2018-09-28T07:46:42.375Z,99.19
2018-09-28T07:47:42.455Z,98.77
2018-09-28T07:48:42.442Z,99.05
2018-09-28T07:49:42.477Z,99.34
2018-09-28T07:50:42.511Z,99.24
2018-09-28T07:51:42.545Z,99.10
2018-09-28T07:52:42.583Z,98.38
2018-09-28T07:53:42.622Z,97.61
2018-09-28T07:54:42.649Z,96.32
2018-09-28T07:55:42.734Z,96.42
2018-09-28T07:56:42.719Z,96.42
2018-09-28T07:57:42.753Z,95.21
2018-09-28T07:58:42.790Z,94.45
2018-09-28T07:59:42.823Z,93.87
2018-09-28T08:00:42.859Z,93.20
2018-09-28T08:01:42.894Z,91.52
2018-09-28T08:02:42.932Z,90.75
2018-09-28T08:03:42.966Z,90.46
2018-09-28T08:04:43.000Z,89.31
2018-09-28T08:05:43.035Z,88.73
2018-09-28T08:06:43.072Z,88.78
2018-09-28T08:07:43.105Z,88.97
2018-09-28T08:08:43.143Z,88.68
2018-09-28T08:09:43.177Z,88.34
2018-09-28T08:10:43.214Z,88.15
2018-09-28T08:11:43.249Z,88.24
2018-09-28T08:12:43.285Z,87.86
2018-09-28T08:13:43.321Z,86.90
2018-09-28T08:14:43.358Z,87.09
2018-09-28T08:15:43.392Z,87.04
2018-09-28T08:16:43.429Z,87.23
2018-09-28T08:17:43.526Z,86.75
2018-09-28T08:18:43.502Z,86.75
2018-09-28T08:19:43.538Z,86.36
2018-09-28T08:20:43.574Z,85.06
2018-09-28T08:21:43.612Z,85.54
2018-09-28T08:22:43.648Z,83.61
2018-09-28T08:23:43.684Z,81.27
2018-09-28T08:24:43.813Z,78.21
2018-09-28T08:25:43.759Z,74.04
2018-09-28T08:26:43.844Z,70.40
2018-09-28T08:27:43.832Z,66.69
2018-09-28T08:28:43.870Z,64.62
2018-09-28T08:29:43.907Z,63.78
2018-09-28T08:30:43.945Z,62.10
2018-09-28T08:31:45.435Z,61.00
2018-09-28T08:32:44.020Z,60.74
2018-09-28T08:33:44.059Z,62.42
2018-09-28T08:34:44.097Z,62.75
2018-09-28T08:35:44.135Z,61.97
2018-09-28T08:36:44.229Z,60.08
2018-09-28T08:37:44.215Z,60.45
2018-09-28T08:38:44.254Z,61.45
2018-09-28T08:39:44.291Z,62.95
2018-09-28T08:40:44.335Z,62.62
2018-09-28T08:41:44.423Z,63.69
2018-09-28T08:42:44.410Z,61.94
2018-09-28T08:43:44.593Z,59.15
2018-09-28T08:44:44.489Z,57.92
2018-09-28T08:45:44.530Z,56.87
2018-09-28T08:46:44.571Z,57.69
2018-09-28T08:47:44.609Z,59.51
2018-09-28T08:48:44.652Z,59.31
2018-09-28T08:49:44.691Z,59.80
2018-09-28T08:50:44.732Z,59.97
2018-09-28T08:51:44.774Z,59.70
2018-09-28T08:52:44.814Z,58.33
2018-09-28T08:53:44.856Z,57.79
2018-09-28T08:54:44.897Z,58.50
2018-09-28T08:55:44.937Z,57.46
2018-09-28T08:56:44.978Z,55.93
2018-09-28T08:57:45.020Z,57.17
2018-09-28T08:58:45.063Z,54.69
2018-09-28T08:59:45.104Z,53.48
2018-09-28T09:00:45.146Z,51.75
2018-09-28T09:01:45.191Z,53.06
2018-09-28T09:02:45.231Z,52.63
2018-09-28T09:03:45.271Z,51.34
2018-09-28T09:04:45.315Z,52.75
2018-09-28T09:05:45.358Z,55.88
2018-09-28T09:06:45.403Z,55.71
2018-09-28T09:07:45.444Z,54.86
2018-09-28T09:08:45.487Z,53.45
2018-09-28T09:09:45.534Z,52.34
2018-09-28T09:10:45.581Z,51.61
2018-09-28T09:11:45.616Z,52.02
2018-09-28T09:12:45.662Z,50.14
2018-09-28T09:13:45.704Z,49.80
2018-09-28T09:14:45.748Z,49.10
2018-09-28T09:15:45.793Z,47.17
2018-09-28T09:16:45.835Z,46.78
2018-09-28T09:31:32.524Z,45.92
2018-09-28T09:32:32.566Z,45.94
2018-09-28T09:33:32.611Z,47.58
2018-09-28T09:34:32.649Z,46.50
2018-09-28T09:35:32.697Z,45.45
2018-09-28T09:36:32.770Z,44.98
2018-09-28T09:37:32.781Z,44.30
2018-09-28T09:38:32.824Z,44.89
2018-09-28T09:39:32.868Z,43.77
2018-09-28T09:40:32.914Z,42.84
2018-09-28T09:41:32.973Z,42.38
2018-09-28T09:42:33.128Z,43.38
2018-09-28T09:43:33.049Z,42.66
2018-09-28T09:44:33.096Z,44.54
2018-09-28T09:45:33.144Z,44.71
2018-09-28T09:46:33.188Z,43.48
2018-09-28T09:47:33.235Z,41.64
2018-09-28T09:48:33.329Z,43.54
2018-09-28T09:49:33.328Z,45.92
2018-09-28T09:50:33.374Z,46.04
2018-09-28T09:51:33.421Z,44.53
2018-09-28T09:52:33.468Z,47.07
2018-09-28T09:53:33.517Z,45.76
2018-09-28T09:54:33.563Z,43.73
2018-09-28T09:55:33.612Z,45.84
2018-09-28T09:56:33.659Z,45.82
2018-09-28T09:57:33.738Z,46.01
2018-09-28T09:58:33.754Z,44.40
2018-09-28T09:59:33.806Z,45.08
2018-09-28T10:00:33.850Z,45.61
2018-09-28T10:01:33.901Z,46.00
2018-09-28T10:02:33.948Z,45.45
2018-09-28T10:03:33.996Z,43.93
2018-09-28T10:04:34.043Z,44.81
2018-09-28T10:05:34.092Z,42.50
2018-09-28T10:06:34.163Z,41.39
2018-09-28T10:07:34.188Z,41.55
2018-09-28T10:08:34.237Z,39.80
2018-09-28T10:09:34.309Z,41.50
2018-09-28T10:10:34.335Z,42.25
2018-09-28T10:11:34.388Z,41.48
2018-09-28T10:12:34.587Z,41.64
2018-09-28T10:13:34.486Z,39.35
2018-09-28T10:14:34.532Z,40.00
2018-09-28T10:15:34.580Z,42.19
2018-09-28T10:16:34.636Z,41.25
2018-09-28T10:17:34.680Z,43.65
2018-09-28T10:18:34.729Z,41.88
2018-09-28T10:19:34.844Z,44.24
2018-09-28T10:20:38.888Z,44.24
2018-09-28T10:21:35.207Z,43.53
2018-09-28T10:22:34.926Z,40.95
2018-09-28T10:23:34.976Z,39.37
2018-09-28T10:24:35.028Z,40.27
2018-09-28T10:25:35.080Z,39.03
2018-09-28T10:26:35.125Z,37.90
2018-09-28T10:27:35.176Z,37.86
2018-09-28T10:28:35.230Z,38.15
2018-09-28T10:29:35.272Z,39.00
2018-09-28T10:30:35.320Z,37.43
2018-09-28T10:31:35.371Z,36.47
2018-09-28T10:32:35.422Z,34.92
2018-09-28T10:33:35.675Z,35.64
2018-09-28T10:34:35.526Z,34.28
2018-09-28T10:35:35.570Z,33.03
2018-09-28T10:36:35.620Z,33.94
2018-09-28T10:37:35.670Z,33.80
2018-09-28T10:38:35.720Z,33.72
2018-09-28T10:39:35.840Z,33.58
2018-09-28T10:40:35.925Z,34.15
2018-09-28T10:41:35.870Z,32.97
2018-09-28T10:42:35.922Z,33.75
2018-09-28T10:43:35.973Z,35.39
2018-09-28T10:44:36.021Z,34.39
2018-09-28T10:45:36.142Z,37.33
2018-09-28T10:46:36.154Z,38.54
2018-09-28T10:47:36.171Z,36.63
2018-09-28T10:48:36.223Z,35.02
2018-09-28T10:49:36.273Z,32.79
2018-09-28T10:50:36.323Z,32.80
2018-09-28T10:51:36.441Z,32.80
2018-09-28T10:52:36.494Z,32.03
2018-09-28T10:53:36.522Z,32.41
2018-09-28T10:54:36.525Z,31.67
2018-09-28T10:55:36.576Z,31.07
2018-09-28T10:56:36.626Z,31.54
2018-09-28T10:57:36.678Z,34.87
2018-09-28T10:58:36.763Z,35.00
2018-09-28T10:59:36.778Z,34.25
2018-09-28T11:00:36.829Z,33.97
2018-09-28T11:01:36.880Z,32.70
2018-09-28T11:02:36.930Z,32.98
2018-09-28T11:03:37.076Z,32.89
2018-09-28T11:04:37.052Z,31.37
2018-09-28T11:05:37.094Z,30.71
2018-09-28T11:06:37.134Z,30.50
2018-09-28T11:07:37.185Z,29.44
2018-09-28T11:08:37.343Z,29.05
2018-09-28T11:09:37.345Z,29.14
2018-09-28T11:10:37.374Z,28.83
2018-09-28T11:11:37.389Z,28.75
2018-09-28T11:12:37.447Z,28.56
2018-09-28T11:13:37.492Z,28.85
2018-09-28T11:14:37.568Z,28.53
2018-09-28T11:15:37.606Z,30.38
2018-09-28T11:16:37.848Z,30.66
2018-09-28T11:17:37.701Z,29.88
2018-09-28T11:18:37.748Z,29.89
2018-09-28T11:19:37.800Z,29.05
2018-09-28T11:20:37.851Z,29.68
2018-09-28T11:21:37.919Z,33.25
2018-09-28T11:22:37.952Z,35.05
2018-09-28T11:23:38.004Z,33.80
2018-09-28T11:24:38.055Z,32.07
2018-09-28T11:25:38.107Z,31.18
2018-09-28T11:26:38.162Z,31.64
2018-09-28T11:27:38.243Z,32.30
2018-09-28T11:28:38.263Z,31.61
2018-09-28T11:29:38.315Z,31.97
2018-09-28T11:30:38.366Z,31.60
2018-09-28T11:31:38.416Z,32.21
2018-09-28T11:32:38.468Z,31.21
2018-09-28T11:33:38.579Z,30.91
2018-09-28T11:34:38.571Z,31.79
2018-09-28T11:35:38.644Z,32.28
2018-09-28T11:36:38.676Z,31.92
2018-09-28T11:37:38.759Z,31.01
2018-09-28T11:38:38.779Z,31.79
2018-09-28T11:39:38.847Z,31.49
2018-09-28T11:40:38.882Z,30.19
2018-09-28T11:41:38.936Z,29.86
2018-09-28T11:42:38.987Z,28.52
2018-09-28T11:43:39.039Z,27.18
2018-09-28T11:44:39.091Z,27.24
2018-09-28T11:45:39.151Z,27.48
2018-09-28T11:46:39.196Z,26.33
2018-09-28T11:47:39.247Z,26.02
2018-09-28T11:48:39.301Z,25.63
2018-09-28T11:49:39.354Z,25.56
2018-09-28T11:50:39.405Z,24.69
2018-09-28T11:51:39.490Z,23.96
2018-09-28T11:52:39.511Z,24.87
2018-09-28T11:53:39.565Z,24.60
2018-09-28T11:54:39.621Z,24.22
2018-09-28T11:55:39.670Z,23.85
2018-09-28T11:56:39.723Z,24.45
2018-09-28T11:57:39.808Z,26.04
2018-09-28T11:58:39.828Z,25.35
2018-09-28T11:59:39.884Z,24.58
2018-09-28T12:00:39.934Z,25.40
2018-09-28T12:01:39.989Z,26.40
2018-09-28T12:02:40.040Z,26.35
2018-09-28T12:03:40.163Z,27.64
2018-09-28T12:04:40.146Z,27.58
2018-09-28T12:05:40.207Z,27.79
2018-09-28T12:06:40.338Z,28.28
2018-09-28T12:07:40.306Z,27.69
2018-09-28T12:08:40.359Z,27.22
2018-09-28T12:09:40.436Z,26.31
2018-09-28T12:10:40.464Z,27.73
2018-09-28T12:11:40.518Z,26.57
2018-09-28T12:12:40.606Z,25.57
2018-09-28T12:13:40.624Z,24.92
2018-09-28T12:14:40.677Z,24.83
2018-09-28T12:15:40.811Z,25.51
2018-09-28T12:16:40.782Z,25.42
2018-09-28T12:17:40.836Z,24.05
2018-09-28T12:18:40.894Z,23.70
2018-09-28T12:19:40.940Z,22.52
2018-09-28T12:20:40.993Z,22.51
2018-09-28T12:21:41.114Z,23.00
2018-09-28T12:22:41.107Z,22.24
2018-09-28T12:23:41.151Z,21.58
2018-09-28T12:24:41.268Z,20.98
2018-09-28T12:25:41.258Z,21.88
2018-09-28T12:26:41.310Z,23.74
2018-09-28T12:27:41.386Z,24.91
2018-09-28T12:28:41.417Z,25.10
2018-09-28T12:29:41.471Z,24.35
2018-09-28T12:30:41.590Z,25.73
2018-09-28T12:31:41.579Z,26.29
2018-09-28T12:32:41.630Z,27.97
2018-09-28T12:33:41.743Z,29.55
2018-09-28T12:34:41.732Z,29.96
2018-09-28T12:35:41.897Z,27.27
2018-09-28T12:36:41.872Z,28.64
2018-09-28T12:37:41.887Z,26.43
2018-09-28T12:38:41.938Z,26.04
2018-09-28T12:39:42.077Z,26.08
2018-09-28T12:40:42.040Z,25.19
2018-09-28T12:41:42.091Z,25.83
2018-09-28T12:42:42.217Z,25.96
2018-09-28T12:43:42.193Z,24.62
2018-09-28T12:44:42.264Z,23.47
2018-09-28T12:45:42.406Z,23.77
2018-09-28T12:46:42.346Z,23.38
2018-09-28T12:47:42.396Z,23.33
2018-09-28T12:48:42.535Z,23.12
2018-09-28T12:49:42.497Z,22.73
2018-09-28T12:50:42.590Z,23.52
2018-09-28T12:51:42.601Z,22.45
2018-09-28T12:52:42.651Z,22.62
2018-09-28T12:53:42.738Z,23.62
2018-09-28T12:54:42.814Z,24.11
2018-09-28T12:55:42.805Z,26.07
2018-09-28T12:56:42.882Z,25.29
2018-09-28T12:57:42.908Z,24.03
2018-09-28T12:58:42.960Z,23.27
2018-09-28T12:59:43.015Z,22.30
2018-09-28T13:00:43.140Z,22.70
2018-09-28T13:01:43.115Z,23.21
2018-09-28T13:02:43.224Z,22.89
2018-09-28T13:03:43.219Z,23.27
2018-09-28T13:04:43.271Z,24.92
2018-09-28T13:05:43.322Z,25.55
2018-09-28T13:06:43.407Z,26.31